sensor_id;sensor_type;location;lat;lon;timestamp;temperature;humidity
20070;DHT22;10195;50.868;4.382;2023-11-22T00:00:28;6.70;99.90
20070;DHT22;10195;50.868;4.382;2023-11-22T00:02:53;6.60;99.90
20070;DHT22;10195;50.868;4.382;2023-11-22T00:05:19;6.60;99.90
20070;DHT22;10195;50.868;4.382;2023-11-22T00:07:45;6.60;99.90
20070;DHT22;10195;50.868;4.382;2023-11-22T00:10:11;6.60;99.90
20070;DHT22;10195;50.868;4.382;2023-11-22T00:12:36;6.60;99.90
20070;DHT22;10195;50.868;4.382;2023-11-22T00:15:04;6.60;99.90
20070;DHT22;10195;50.868;4.382;2023-11-22T00:17:31;6.60;99.90
20070;DHT22;10195;50.868;4.382;2023-11-22T00:19:58;6.70;99.90
20070;DHT22;10195;50.868;4.382;2023-11-22T00:22:26;6.70;99.90
20070;DHT22;10195;50.868;4.382;2023-11-22T00:24:53;6.70;99.90
20070;DHT22;10195;50.868;4.382;2023-11-22T00:27:19;6.70;99.90
20070;DHT22;10195;50.868;4.382;2023-11-22T00:29:45;6.60;99.90
20070;DHT22;10195;50.868;4.382;2023-11-22T00:32:11;6.60;99.90
20070;DHT22;10195;50.868;4.382;2023-11-22T00:34:37;6.70;99.90
20070;DHT22;10195;50.868;4.382;2023-11-22T00:37:03;6.70;99.90
20070;DHT22;10195;50.868;4.382;2023-11-22T00:39:28;6.70;99.90
20070;DHT22;10195;50.868;4.382;2023-11-22T00:41:54;6.70;99.90
20070;DHT22;10195;50.868;4.382;2023-11-22T00:44:21;6.60;99.90
20070;DHT22;10195;50.868;4.382;2023-11-22T00:46:47;6.60;99.90
20070;DHT22;10195;50.868;4.382;2023-11-22T00:49:12;6.60;99.90
20070;DHT22;10195;50.868;4.382;2023-11-22T00:51:38;6.60;99.90
20070;DHT22;10195;50.868;4.382;2023-11-22T00:54:04;6.50;99.90
20070;DHT22;10195;50.868;4.382;2023-11-22T00:56:30;6.50;99.90
20070;DHT22;10195;50.868;4.382;2023-11-22T00:58:56;6.40;99.90
20070;DHT22;10195;50.868;4.382;2023-11-22T01:01:25;6.50;99.90
20070;DHT22;10195;50.868;4.382;2023-11-22T01:03:51;6.40;99.90
20070;DHT22;10195;50.868;4.382;2023-11-22T01:06:16;6.30;99.90
20070;DHT22;10195;50.868;4.382;2023-11-22T01:08:43;6.30;99.90
20070;DHT22;10195;50.868;4.382;2023-11-22T01:11:09;6.20;99.90
20070;DHT22;10195;50.868;4.382;2023-11-22T01:13:35;6.10;99.90
20070;DHT22;10195;50.868;4.382;2023-11-22T01:16:10;6.10;99.90
20070;DHT22;10195;50.868;4.382;2023-11-22T01:18:36;6.10;99.90
20070;DHT22;10195;50.868;4.382;2023-11-22T01:21:02;6.20;99.90
20070;DHT22;10195;50.868;4.382;2023-11-22T01:23:32;6.10;99.90
20070;DHT22;10195;50.868;4.382;2023-11-22T01:26:00;6.00;99.90
20070;DHT22;10195;50.868;4.382;2023-11-22T01:28:28;6.00;99.90
20070;DHT22;10195;50.868;4.382;2023-11-22T01:30:54;6.10;99.90
20070;DHT22;10195;50.868;4.382;2023-11-22T01:33:23;6.10;99.90
20070;DHT22;10195;50.868;4.382;2023-11-22T01:35:49;6.00;99.90
20070;DHT22;10195;50.868;4.382;2023-11-22T01:38:15;6.10;99.90
20070;DHT22;10195;50.868;4.382;2023-11-22T01:40:45;6.10;99.90
20070;DHT22;10195;50.868;4.382;2023-11-22T01:43:18;6.20;99.90
20070;DHT22;10195;50.868;4.382;2023-11-22T01:45:44;6.20;99.90
20070;DHT22;10195;50.868;4.382;2023-11-22T01:48:11;6.10;99.90
20070;DHT22;10195;50.868;4.382;2023-11-22T01:50:40;6.00;99.90
20070;DHT22;10195;50.868;4.382;2023-11-22T01:53:12;6.00;99.90
20070;DHT22;10195;50.868;4.382;2023-11-22T01:55:39;6.10;99.90
20070;DHT22;10195;50.868;4.382;2023-11-22T01:58:05;6.10;99.90
20070;DHT22;10195;50.868;4.382;2023-11-22T02:00:35;6.10;99.90
20070;DHT22;10195;50.868;4.382;2023-11-22T02:03:02;6.10;99.90
20070;DHT22;10195;50.868;4.382;2023-11-22T02:05:27;6.10;99.90
20070;DHT22;10195;50.868;4.382;2023-11-22T02:07:53;6.10;99.90
20070;DHT22;10195;50.868;4.382;2023-11-22T02:10:20;6.10;99.90
20070;DHT22;10195;50.868;4.382;2023-11-22T02:12:46;6.10;99.90
20070;DHT22;10195;50.868;4.382;2023-11-22T02:15:12;6.00;99.90
20070;DHT22;10195;50.868;4.382;2023-11-22T02:17:37;6.00;99.90
20070;DHT22;10195;50.868;4.382;2023-11-22T02:20:03;6.10;99.90
20070;DHT22;10195;50.868;4.382;2023-11-22T02:22:34;6.30;99.90
20070;DHT22;10195;50.868;4.382;2023-11-22T02:25:02;6.20;99.90
20070;DHT22;10195;50.868;4.382;2023-11-22T02:27:28;6.30;99.90
20070;DHT22;10195;50.868;4.382;2023-11-22T02:29:53;6.40;99.90
20070;DHT22;10195;50.868;4.382;2023-11-22T02:32:19;6.30;99.90
20070;DHT22;10195;50.868;4.382;2023-11-22T02:34:45;6.40;99.90
20070;DHT22;10195;50.868;4.382;2023-11-22T02:37:11;6.50;99.90
20070;DHT22;10195;50.868;4.382;2023-11-22T02:40:12;6.60;99.90
20070;DHT22;10195;50.868;4.382;2023-11-22T02:42:40;6.70;99.90
20070;DHT22;10195;50.868;4.382;2023-11-22T02:45:06;6.70;99.90
20070;DHT22;10195;50.868;4.382;2023-11-22T02:47:32;6.50;99.90
20070;DHT22;10195;50.868;4.382;2023-11-22T02:50:00;6.30;99.90
20070;DHT22;10195;50.868;4.382;2023-11-22T02:52:26;6.10;99.90
20070;DHT22;10195;50.868;4.382;2023-11-22T02:54:52;5.90;99.90
20070;DHT22;10195;50.868;4.382;2023-11-22T02:57:17;5.90;99.90
20070;DHT22;10195;50.868;4.382;2023-11-22T02:59:44;6.00;99.90
20070;DHT22;10195;50.868;4.382;2023-11-22T03:02:10;5.90;99.90
20070;DHT22;10195;50.868;4.382;2023-11-22T03:04:37;6.00;99.90
20070;DHT22;10195;50.868;4.382;2023-11-22T03:07:03;5.90;99.90
20070;DHT22;10195;50.868;4.382;2023-11-22T03:09:31;5.90;99.90
20070;DHT22;10195;50.868;4.382;2023-11-22T03:11:57;5.90;99.90
20070;DHT22;10195;50.868;4.382;2023-11-22T03:14:23;6.00;99.90
20070;DHT22;10195;50.868;4.382;2023-11-22T03:16:49;6.00;99.90
20070;DHT22;10195;50.868;4.382;2023-11-22T03:19:15;5.80;99.90
20070;DHT22;10195;50.868;4.382;2023-11-22T03:21:41;5.80;99.90
20070;DHT22;10195;50.868;4.382;2023-11-22T03:24:09;5.90;99.90
20070;DHT22;10195;50.868;4.382;2023-11-22T03:26:35;6.00;99.90
20070;DHT22;10195;50.868;4.382;2023-11-22T03:29:01;5.80;99.90
20070;DHT22;10195;50.868;4.382;2023-11-22T03:31:29;5.80;99.90
20070;DHT22;10195;50.868;4.382;2023-11-22T03:33:57;5.90;99.90
20070;DHT22;10195;50.868;4.382;2023-11-22T03:36:23;5.90;99.90
20070;DHT22;10195;50.868;4.382;2023-11-22T03:38:49;5.90;99.90
20070;DHT22;10195;50.868;4.382;2023-11-22T03:41:16;5.80;99.90
20070;DHT22;10195;50.868;4.382;2023-11-22T03:43:43;5.80;99.90
20070;DHT22;10195;50.868;4.382;2023-11-22T03:46:08;5.90;99.90
20070;DHT22;10195;50.868;4.382;2023-11-22T03:48:36;6.10;99.90
20070;DHT22;10195;50.868;4.382;2023-11-22T03:51:02;5.90;99.90
20070;DHT22;10195;50.868;4.382;2023-11-22T03:53:28;5.80;99.90
20070;DHT22;10195;50.868;4.382;2023-11-22T03:55:54;5.80;99.90
20070;DHT22;10195;50.868;4.382;2023-11-22T03:58:20;5.60;99.90
20070;DHT22;10195;50.868;4.382;2023-11-22T04:00:46;5.70;99.90
20070;DHT22;10195;50.868;4.382;2023-11-22T04:03:19;5.70;99.90
20070;DHT22;10195;50.868;4.382;2023-11-22T04:05:45;5.60;99.90
20070;DHT22;10195;50.868;4.382;2023-11-22T04:08:11;5.60;99.90
20070;DHT22;10195;50.868;4.382;2023-11-22T04:10:37;5.70;99.90
20070;DHT22;10195;50.868;4.382;2023-11-22T04:13:03;5.80;99.90
20070;DHT22;10195;50.868;4.382;2023-11-22T04:15:28;5.90;99.90
20070;DHT22;10195;50.868;4.382;2023-11-22T04:17:54;5.90;99.90
20070;DHT22;10195;50.868;4.382;2023-11-22T04:20:20;5.80;99.90
20070;DHT22;10195;50.868;4.382;2023-11-22T04:22:46;5.60;99.90
20070;DHT22;10195;50.868;4.382;2023-11-22T04:25:11;5.70;99.90
20070;DHT22;10195;50.868;4.382;2023-11-22T04:27:40;5.80;99.90
20070;DHT22;10195;50.868;4.382;2023-11-22T04:30:08;5.70;99.90
20070;DHT22;10195;50.868;4.382;2023-11-22T04:32:37;5.50;99.90
20070;DHT22;10195;50.868;4.382;2023-11-22T04:35:03;5.50;99.90
20070;DHT22;10195;50.868;4.382;2023-11-22T04:37:31;5.40;99.90
20070;DHT22;10195;50.868;4.382;2023-11-22T04:40:00;5.50;99.90
20070;DHT22;10195;50.868;4.382;2023-11-22T04:42:34;5.60;99.90
20070;DHT22;10195;50.868;4.382;2023-11-22T04:45:00;5.60;99.90
20070;DHT22;10195;50.868;4.382;2023-11-22T04:47:25;5.50;99.90
20070;DHT22;10195;50.868;4.382;2023-11-22T04:49:51;5.30;99.90
20070;DHT22;10195;50.868;4.382;2023-11-22T04:52:17;5.40;99.90
20070;DHT22;10195;50.868;4.382;2023-11-22T04:54:42;5.50;99.90
20070;DHT22;10195;50.868;4.382;2023-11-22T04:57:08;5.60;99.90
20070;DHT22;10195;50.868;4.382;2023-11-22T04:59:33;5.70;99.90
20070;DHT22;10195;50.868;4.382;2023-11-22T05:01:59;5.80;99.90
20070;DHT22;10195;50.868;4.382;2023-11-22T05:04:25;5.60;99.90
20070;DHT22;10195;50.868;4.382;2023-11-22T05:06:53;5.60;99.90
20070;DHT22;10195;50.868;4.382;2023-11-22T05:09:18;5.70;99.90
20070;DHT22;10195;50.868;4.382;2023-11-22T05:11:45;5.80;99.90
20070;DHT22;10195;50.868;4.382;2023-11-22T05:14:11;5.90;99.90
20070;DHT22;10195;50.868;4.382;2023-11-22T05:16:37;5.80;99.90
20070;DHT22;10195;50.868;4.382;2023-11-22T05:19:02;5.90;99.90
20070;DHT22;10195;50.868;4.382;2023-11-22T05:21:28;5.80;99.90
20070;DHT22;10195;50.868;4.382;2023-11-22T05:23:54;5.70;99.90
20070;DHT22;10195;50.868;4.382;2023-11-22T05:26:20;5.70;99.90
20070;DHT22;10195;50.868;4.382;2023-11-22T05:28:50;5.60;99.90
20070;DHT22;10195;50.868;4.382;2023-11-22T05:31:16;5.60;99.90
20070;DHT22;10195;50.868;4.382;2023-11-22T05:33:41;5.70;99.90
20070;DHT22;10195;50.868;4.382;2023-11-22T05:36:08;5.80;99.90
20070;DHT22;10195;50.868;4.382;2023-11-22T05:38:34;5.90;99.90
20070;DHT22;10195;50.868;4.382;2023-11-22T05:41:00;6.10;99.90
20070;DHT22;10195;50.868;4.382;2023-11-22T05:43:26;6.20;99.90
20070;DHT22;10195;50.868;4.382;2023-11-22T05:45:55;6.10;99.90
20070;DHT22;10195;50.868;4.382;2023-11-22T05:48:21;6.10;99.90
20070;DHT22;10195;50.868;4.382;2023-11-22T05:50:47;6.00;99.90
20070;DHT22;10195;50.868;4.382;2023-11-22T05:53:13;6.10;99.90
20070;DHT22;10195;50.868;4.382;2023-11-22T05:55:50;6.20;99.90
20070;DHT22;10195;50.868;4.382;2023-11-22T05:58:17;6.20;99.90
20070;DHT22;10195;50.868;4.382;2023-11-22T06:00:43;6.40;99.90
20070;DHT22;10195;50.868;4.382;2023-11-22T06:03:10;6.40;99.90
20070;DHT22;10195;50.868;4.382;2023-11-22T06:05:36;6.20;99.90
20070;DHT22;10195;50.868;4.382;2023-11-22T06:08:02;6.10;99.90
20070;DHT22;10195;50.868;4.382;2023-11-22T06:10:28;6.00;99.90
20070;DHT22;10195;50.868;4.382;2023-11-22T06:12:53;5.90;99.90
20070;DHT22;10195;50.868;4.382;2023-11-22T06:15:19;5.90;99.90
20070;DHT22;10195;50.868;4.382;2023-11-22T06:17:47;5.80;99.90
20070;DHT22;10195;50.868;4.382;2023-11-22T06:20:14;5.80;99.90
20070;DHT22;10195;50.868;4.382;2023-11-22T06:22:40;5.90;99.90
20070;DHT22;10195;50.868;4.382;2023-11-22T06:25:11;5.90;99.90
20070;DHT22;10195;50.868;4.382;2023-11-22T06:27:37;5.90;99.90
20070;DHT22;10195;50.868;4.382;2023-11-22T06:30:03;6.00;99.90
20070;DHT22;10195;50.868;4.382;2023-11-22T06:32:29;5.90;99.90
20070;DHT22;10195;50.868;4.382;2023-11-22T06:34:55;5.90;99.90
20070;DHT22;10195;50.868;4.382;2023-11-22T06:37:21;5.90;99.90
20070;DHT22;10195;50.868;4.382;2023-11-22T06:39:47;6.10;99.90
20070;DHT22;10195;50.868;4.382;2023-11-22T06:42:12;6.10;99.90
20070;DHT22;10195;50.868;4.382;2023-11-22T06:44:39;6.00;99.90
20070;DHT22;10195;50.868;4.382;2023-11-22T06:47:05;6.00;99.90
20070;DHT22;10195;50.868;4.382;2023-11-22T06:49:33;5.80;99.90
20070;DHT22;10195;50.868;4.382;2023-11-22T06:51:59;5.70;99.90
20070;DHT22;10195;50.868;4.382;2023-11-22T06:54:24;5.60;99.90
20070;DHT22;10195;50.868;4.382;2023-11-22T06:56:50;5.50;99.90
20070;DHT22;10195;50.868;4.382;2023-11-22T06:59:17;5.50;99.90
20070;DHT22;10195;50.868;4.382;2023-11-22T07:01:43;5.50;99.90
20070;DHT22;10195;50.868;4.382;2023-11-22T07:04:09;5.70;99.90
20070;DHT22;10195;50.868;4.382;2023-11-22T07:06:35;5.90;99.90
20070;DHT22;10195;50.868;4.382;2023-11-22T07:09:03;6.10;99.90
20070;DHT22;10195;50.868;4.382;2023-11-22T07:11:29;6.00;99.90
20070;DHT22;10195;50.868;4.382;2023-11-22T07:13:56;6.10;99.90
20070;DHT22;10195;50.868;4.382;2023-11-22T07:16:23;6.20;99.90
20070;DHT22;10195;50.868;4.382;2023-11-22T07:18:50;6.10;99.90
20070;DHT22;10195;50.868;4.382;2023-11-22T07:21:16;6.10;99.90
20070;DHT22;10195;50.868;4.382;2023-11-22T07:23:42;6.30;99.90
20070;DHT22;10195;50.868;4.382;2023-11-22T07:26:10;6.30;99.90
20070;DHT22;10195;50.868;4.382;2023-11-22T07:28:36;6.30;99.90
20070;DHT22;10195;50.868;4.382;2023-11-22T07:31:03;6.40;99.90
20070;DHT22;10195;50.868;4.382;2023-11-22T07:33:31;6.30;99.90
20070;DHT22;10195;50.868;4.382;2023-11-22T07:35:57;6.30;99.90
20070;DHT22;10195;50.868;4.382;2023-11-22T07:38:24;6.10;99.90
20070;DHT22;10195;50.868;4.382;2023-11-22T07:40:50;6.00;99.90
20070;DHT22;10195;50.868;4.382;2023-11-22T07:43:16;5.80;99.90
20070;DHT22;10195;50.868;4.382;2023-11-22T07:45:42;5.80;99.90
20070;DHT22;10195;50.868;4.382;2023-11-22T07:48:10;5.80;99.90
20070;DHT22;10195;50.868;4.382;2023-11-22T07:50:37;5.90;99.90
20070;DHT22;10195;50.868;4.382;2023-11-22T07:53:04;5.80;99.90
20070;DHT22;10195;50.868;4.382;2023-11-22T07:55:31;5.90;99.90
20070;DHT22;10195;50.868;4.382;2023-11-22T07:57:56;6.10;99.90
20070;DHT22;10195;50.868;4.382;2023-11-22T08:00:23;6.10;99.90
20070;DHT22;10195;50.868;4.382;2023-11-22T08:02:48;6.10;99.90
20070;DHT22;10195;50.868;4.382;2023-11-22T08:05:15;6.30;99.90
20070;DHT22;10195;50.868;4.382;2023-11-22T08:07:42;6.40;99.90
20070;DHT22;10195;50.868;4.382;2023-11-22T08:10:10;6.50;99.90
20070;DHT22;10195;50.868;4.382;2023-11-22T08:12:45;6.50;99.90
20070;DHT22;10195;50.868;4.382;2023-11-22T08:15:13;6.30;99.90
20070;DHT22;10195;50.868;4.382;2023-11-22T08:17:42;6.10;99.90
20070;DHT22;10195;50.868;4.382;2023-11-22T08:20:11;6.10;99.90
20070;DHT22;10195;50.868;4.382;2023-11-22T08:22:43;6.00;99.90
20070;DHT22;10195;50.868;4.382;2023-11-22T08:25:11;6.20;99.90
20070;DHT22;10195;50.868;4.382;2023-11-22T08:27:40;6.20;99.90
20070;DHT22;10195;50.868;4.382;2023-11-22T08:30:09;6.40;99.90
20070;DHT22;10195;50.868;4.382;2023-11-22T08:32:47;6.60;99.90
20070;DHT22;10195;50.868;4.382;2023-11-22T08:35:20;6.70;99.90
20070;DHT22;10195;50.868;4.382;2023-11-22T08:37:49;6.70;99.90
20070;DHT22;10195;50.868;4.382;2023-11-22T08:40:16;6.90;99.90
20070;DHT22;10195;50.868;4.382;2023-11-22T08:42:48;7.20;99.90
20070;DHT22;10195;50.868;4.382;2023-11-22T08:45:14;7.20;99.90
20070;DHT22;10195;50.868;4.382;2023-11-22T08:47:40;7.40;99.90
20070;DHT22;10195;50.868;4.382;2023-11-22T08:50:09;7.40;99.90
20070;DHT22;10195;50.868;4.382;2023-11-22T08:52:39;7.50;99.90
20070;DHT22;10195;50.868;4.382;2023-11-22T08:55:06;7.10;99.90
20070;DHT22;10195;50.868;4.382;2023-11-22T08:57:35;7.20;99.90
20070;DHT22;10195;50.868;4.382;2023-11-22T09:00:02;7.40;99.90
20070;DHT22;10195;50.868;4.382;2023-11-22T09:02:32;7.20;99.90
20070;DHT22;10195;50.868;4.382;2023-11-22T09:04:58;7.20;99.90
20070;DHT22;10195;50.868;4.382;2023-11-22T09:07:24;7.20;99.90
20070;DHT22;10195;50.868;4.382;2023-11-22T09:09:50;6.80;99.90
20070;DHT22;10195;50.868;4.382;2023-11-22T09:12:17;6.60;99.90
20070;DHT22;10195;50.868;4.382;2023-11-22T09:14:45;6.80;99.90
20070;DHT22;10195;50.868;4.382;2023-11-22T09:17:12;7.00;99.90
20070;DHT22;10195;50.868;4.382;2023-11-22T09:19:39;7.10;99.90
20070;DHT22;10195;50.868;4.382;2023-11-22T09:22:05;7.10;99.90
20070;DHT22;10195;50.868;4.382;2023-11-22T09:24:34;7.20;99.90
20070;DHT22;10195;50.868;4.382;2023-11-22T09:27:03;7.40;99.90
20070;DHT22;10195;50.868;4.382;2023-11-22T09:29:31;7.60;99.90
20070;DHT22;10195;50.868;4.382;2023-11-22T09:31:59;7.80;99.90
20070;DHT22;10195;50.868;4.382;2023-11-22T09:34:26;8.10;99.90
20070;DHT22;10195;50.868;4.382;2023-11-22T09:36:54;8.20;99.90
20070;DHT22;10195;50.868;4.382;2023-11-22T09:39:20;8.30;99.90
20070;DHT22;10195;50.868;4.382;2023-11-22T09:41:47;8.50;99.90
20070;DHT22;10195;50.868;4.382;2023-11-22T09:44:14;8.70;99.90
20070;DHT22;10195;50.868;4.382;2023-11-22T09:46:42;8.90;99.90
20070;DHT22;10195;50.868;4.382;2023-11-22T09:49:09;8.90;99.90
20070;DHT22;10195;50.868;4.382;2023-11-22T09:51:37;8.70;99.90
20070;DHT22;10195;50.868;4.382;2023-11-22T09:54:06;8.70;99.90
20070;DHT22;10195;50.868;4.382;2023-11-22T09:56:35;8.50;99.90
20070;DHT22;10195;50.868;4.382;2023-11-22T09:59:04;8.60;99.90
20070;DHT22;10195;50.868;4.382;2023-11-22T10:01:30;8.70;99.90
20070;DHT22;10195;50.868;4.382;2023-11-22T10:03:57;8.90;99.90
20070;DHT22;10195;50.868;4.382;2023-11-22T10:06:23;9.10;99.90
20070;DHT22;10195;50.868;4.382;2023-11-22T10:08:49;9.40;99.90
20070;DHT22;10195;50.868;4.382;2023-11-22T10:11:16;9.50;99.90
20070;DHT22;10195;50.868;4.382;2023-11-22T10:13:50;9.20;99.90
20070;DHT22;10195;50.868;4.382;2023-11-22T10:16:16;9.20;99.90
20070;DHT22;10195;50.868;4.382;2023-11-22T10:18:45;9.40;99.90
20070;DHT22;10195;50.868;4.382;2023-11-22T10:21:30;9.70;99.90
20070;DHT22;10195;50.868;4.382;2023-11-22T10:23:57;9.80;99.90
20070;DHT22;10195;50.868;4.382;2023-11-22T10:26:24;9.80;99.90
20070;DHT22;10195;50.868;4.382;2023-11-22T10:28:51;9.80;99.90
20070;DHT22;10195;50.868;4.382;2023-11-22T10:31:18;9.90;99.90
20070;DHT22;10195;50.868;4.382;2023-11-22T10:33:44;9.60;99.90
20070;DHT22;10195;50.868;4.382;2023-11-22T10:36:10;9.00;99.90
20070;DHT22;10195;50.868;4.382;2023-11-22T10:38:37;8.80;99.90
20070;DHT22;10195;50.868;4.382;2023-11-22T10:41:12;8.80;99.90
20070;DHT22;10195;50.868;4.382;2023-11-22T10:43:40;9.00;99.90
20070;DHT22;10195;50.868;4.382;2023-11-22T10:46:07;9.20;99.90
20070;DHT22;10195;50.868;4.382;2023-11-22T10:48:35;9.40;99.90
20070;DHT22;10195;50.868;4.382;2023-11-22T10:51:03;9.80;99.90
20070;DHT22;10195;50.868;4.382;2023-11-22T10:53:37;10.50;99.90
20070;DHT22;10195;50.868;4.382;2023-11-22T10:56:12;11.20;99.90
20070;DHT22;10195;50.868;4.382;2023-11-22T10:58:49;11.30;99.90
20070;DHT22;10195;50.868;4.382;2023-11-22T11:01:16;11.30;99.90
20070;DHT22;10195;50.868;4.382;2023-11-22T11:03:49;11.30;99.90
20070;DHT22;10195;50.868;4.382;2023-11-22T11:06:22;11.30;99.90
20070;DHT22;10195;50.868;4.382;2023-11-22T11:08:54;11.00;99.90
20070;DHT22;10195;50.868;4.382;2023-11-22T11:11:21;10.90;99.90
20070;DHT22;10195;50.868;4.382;2023-11-22T11:13:49;10.90;99.90
20070;DHT22;10195;50.868;4.382;2023-11-22T11:16:15;10.40;99.90
20070;DHT22;10195;50.868;4.382;2023-11-22T11:18:41;10.50;99.90
20070;DHT22;10195;50.868;4.382;2023-11-22T11:21:09;10.70;99.90
20070;DHT22;10195;50.868;4.382;2023-11-22T11:23:39;10.90;99.90
20070;DHT22;10195;50.868;4.382;2023-11-22T11:26:25;11.00;99.90
20070;DHT22;10195;50.868;4.382;2023-11-22T11:28:51;11.10;99.90
20070;DHT22;10195;50.868;4.382;2023-11-22T11:31:21;11.10;99.90
20070;DHT22;10195;50.868;4.382;2023-11-22T11:36:24;11.20;99.90
20070;DHT22;10195;50.868;4.382;2023-11-22T11:38:52;10.90;99.90
20070;DHT22;10195;50.868;4.382;2023-11-22T11:41:31;10.60;99.90
20070;DHT22;10195;50.868;4.382;2023-11-22T11:43:58;10.40;99.90
20070;DHT22;10195;50.868;4.382;2023-11-22T11:46:26;10.40;99.90
20070;DHT22;10195;50.868;4.382;2023-11-22T11:48:53;10.00;99.90
20070;DHT22;10195;50.868;4.382;2023-11-22T11:51:24;10.30;99.90
20070;DHT22;10195;50.868;4.382;2023-11-22T11:53:51;10.50;99.90
20070;DHT22;10195;50.868;4.382;2023-11-22T11:56:17;10.60;99.90
20070;DHT22;10195;50.868;4.382;2023-11-22T11:58:44;10.60;99.90
20070;DHT22;10195;50.868;4.382;2023-11-22T12:01:14;11.00;99.90
20070;DHT22;10195;50.868;4.382;2023-11-22T12:03:42;10.90;99.90
20070;DHT22;10195;50.868;4.382;2023-11-22T12:06:08;10.10;99.90
20070;DHT22;10195;50.868;4.382;2023-11-22T12:08:34;10.10;99.90
20070;DHT22;10195;50.868;4.382;2023-11-22T12:11:03;10.20;99.90
20070;DHT22;10195;50.868;4.382;2023-11-22T12:13:30;10.30;99.90
20070;DHT22;10195;50.868;4.382;2023-11-22T12:15:57;10.40;99.90
20070;DHT22;10195;50.868;4.382;2023-11-22T12:18:24;10.40;99.90
20070;DHT22;10195;50.868;4.382;2023-11-22T12:20:56;10.50;99.90
20070;DHT22;10195;50.868;4.382;2023-11-22T12:23:27;10.40;99.90
20070;DHT22;10195;50.868;4.382;2023-11-22T12:26:01;10.40;99.90
20070;DHT22;10195;50.868;4.382;2023-11-22T12:28:28;10.50;99.90
20070;DHT22;10195;50.868;4.382;2023-11-22T12:30:54;10.40;99.90
20070;DHT22;10195;50.868;4.382;2023-11-22T12:33:20;10.30;99.90
20070;DHT22;10195;50.868;4.382;2023-11-22T12:35:47;10.30;99.90
20070;DHT22;10195;50.868;4.382;2023-11-22T12:38:14;10.40;99.90
20070;DHT22;10195;50.868;4.382;2023-11-22T12:40:46;10.30;99.90
20070;DHT22;10195;50.868;4.382;2023-11-22T12:43:13;10.20;99.90
20070;DHT22;10195;50.868;4.382;2023-11-22T12:45:39;10.20;99.90
20070;DHT22;10195;50.868;4.382;2023-11-22T12:48:23;10.00;99.90
20070;DHT22;10195;50.868;4.382;2023-11-22T12:50:50;9.60;99.90
20070;DHT22;10195;50.868;4.382;2023-11-22T12:53:16;9.50;99.90
20070;DHT22;10195;50.868;4.382;2023-11-22T12:55:46;9.40;99.90
20070;DHT22;10195;50.868;4.382;2023-11-22T12:58:17;9.60;99.90
20070;DHT22;10195;50.868;4.382;2023-11-22T13:00:48;9.50;99.90
20070;DHT22;10195;50.868;4.382;2023-11-22T13:03:14;9.50;99.90
20070;DHT22;10195;50.868;4.382;2023-11-22T13:05:41;9.40;99.90
20070;DHT22;10195;50.868;4.382;2023-11-22T13:08:11;9.30;99.90
20070;DHT22;10195;50.868;4.382;2023-11-22T13:10:39;9.40;99.90
20070;DHT22;10195;50.868;4.382;2023-11-22T13:13:05;9.40;99.90
20070;DHT22;10195;50.868;4.382;2023-11-22T13:15:34;9.40;99.90
20070;DHT22;10195;50.868;4.382;2023-11-22T13:18:00;9.40;99.90
20070;DHT22;10195;50.868;4.382;2023-11-22T13:20:27;9.30;99.90
20070;DHT22;10195;50.868;4.382;2023-11-22T13:22:54;9.30;99.90
20070;DHT22;10195;50.868;4.382;2023-11-22T13:25:20;9.20;99.90
20070;DHT22;10195;50.868;4.382;2023-11-22T13:27:47;9.20;99.90
20070;DHT22;10195;50.868;4.382;2023-11-22T13:30:17;9.10;99.90
20070;DHT22;10195;50.868;4.382;2023-11-22T13:32:50;9.00;99.90
20070;DHT22;10195;50.868;4.382;2023-11-22T13:35:16;8.90;99.90
20070;DHT22;10195;50.868;4.382;2023-11-22T13:37:46;9.10;99.90
20070;DHT22;10195;50.868;4.382;2023-11-22T13:40:17;9.20;99.90
20070;DHT22;10195;50.868;4.382;2023-11-22T13:42:47;9.30;99.90
20070;DHT22;10195;50.868;4.382;2023-11-22T13:45:14;9.40;99.90
20070;DHT22;10195;50.868;4.382;2023-11-22T13:47:51;9.40;99.90
20070;DHT22;10195;50.868;4.382;2023-11-22T13:50:29;9.20;99.90
20070;DHT22;10195;50.868;4.382;2023-11-22T13:52:55;9.30;99.90
20070;DHT22;10195;50.868;4.382;2023-11-22T13:55:22;9.20;99.90
20070;DHT22;10195;50.868;4.382;2023-11-22T13:57:52;9.20;99.90
20070;DHT22;10195;50.868;4.382;2023-11-22T14:00:19;9.20;99.90
20070;DHT22;10195;50.868;4.382;2023-11-22T14:02:49;9.10;99.90
20070;DHT22;10195;50.868;4.382;2023-11-22T14:05:17;9.10;99.90
20070;DHT22;10195;50.868;4.382;2023-11-22T14:07:43;9.20;99.90
20070;DHT22;10195;50.868;4.382;2023-11-22T14:10:10;9.30;99.90
20070;DHT22;10195;50.868;4.382;2023-11-22T14:12:37;9.10;99.90
20070;DHT22;10195;50.868;4.382;2023-11-22T14:15:03;9.00;99.90
20070;DHT22;10195;50.868;4.382;2023-11-22T14:17:30;9.10;99.90
20070;DHT22;10195;50.868;4.382;2023-11-22T14:19:55;9.10;99.90
20070;DHT22;10195;50.868;4.382;2023-11-22T14:22:22;9.10;99.90
20070;DHT22;10195;50.868;4.382;2023-11-22T14:24:51;9.10;99.90
20070;DHT22;10195;50.868;4.382;2023-11-22T14:27:20;9.30;99.90
20070;DHT22;10195;50.868;4.382;2023-11-22T14:29:46;9.50;99.90
20070;DHT22;10195;50.868;4.382;2023-11-22T14:32:16;9.50;99.90
20070;DHT22;10195;50.868;4.382;2023-11-22T14:34:42;9.50;99.90
20070;DHT22;10195;50.868;4.382;2023-11-22T14:37:10;9.60;99.90
20070;DHT22;10195;50.868;4.382;2023-11-22T14:39:35;9.60;99.90
20070;DHT22;10195;50.868;4.382;2023-11-22T14:42:01;9.60;99.90
20070;DHT22;10195;50.868;4.382;2023-11-22T14:44:27;9.50;99.90
20070;DHT22;10195;50.868;4.382;2023-11-22T14:46:53;9.40;99.90
20070;DHT22;10195;50.868;4.382;2023-11-22T14:49:19;9.30;99.90
20070;DHT22;10195;50.868;4.382;2023-11-22T14:51:46;9.30;99.90
20070;DHT22;10195;50.868;4.382;2023-11-22T14:54:12;9.20;99.90
20070;DHT22;10195;50.868;4.382;2023-11-22T14:56:37;9.30;99.90
20070;DHT22;10195;50.868;4.382;2023-11-22T14:59:05;9.40;99.90
20070;DHT22;10195;50.868;4.382;2023-11-22T15:01:31;9.20;99.90
20070;DHT22;10195;50.868;4.382;2023-11-22T15:03:57;9.00;99.90
20070;DHT22;10195;50.868;4.382;2023-11-22T15:06:23;8.90;99.90
20070;DHT22;10195;50.868;4.382;2023-11-22T15:08:49;8.90;99.90
20070;DHT22;10195;50.868;4.382;2023-11-22T15:11:16;9.00;99.90
20070;DHT22;10195;50.868;4.382;2023-11-22T15:13:44;9.00;99.90
20070;DHT22;10195;50.868;4.382;2023-11-22T15:16:09;9.00;99.90
20070;DHT22;10195;50.868;4.382;2023-11-22T15:18:38;9.00;99.90
20070;DHT22;10195;50.868;4.382;2023-11-22T15:21:05;8.70;99.90
20070;DHT22;10195;50.868;4.382;2023-11-22T15:23:31;8.70;99.90
20070;DHT22;10195;50.868;4.382;2023-11-22T15:25:56;8.70;99.90
20070;DHT22;10195;50.868;4.382;2023-11-22T15:28:24;8.70;99.90
20070;DHT22;10195;50.868;4.382;2023-11-22T15:30:50;8.70;99.90
20070;DHT22;10195;50.868;4.382;2023-11-22T15:33:22;8.80;99.90
20070;DHT22;10195;50.868;4.382;2023-11-22T15:35:48;8.90;99.90
20070;DHT22;10195;50.868;4.382;2023-11-22T15:38:13;8.90;99.90
20070;DHT22;10195;50.868;4.382;2023-11-22T15:40:39;8.90;99.90
20070;DHT22;10195;50.868;4.382;2023-11-22T15:43:05;8.80;99.90
20070;DHT22;10195;50.868;4.382;2023-11-22T15:45:31;8.90;99.90
20070;DHT22;10195;50.868;4.382;2023-11-22T15:47:57;8.90;99.90